sensor_id;sensor_type;location;lat;lon;timestamp;pressure;altitude;pressure_sealevel;temperature;humidity
2791;BME280;31795;50.970;13.366;2022-07-29T00:00:27;97980.22;;;12.83;82.00
2791;BME280;31795;50.970;13.366;2022-07-29T00:02:37;97984.25;;;12.85;82.25
2791;BME280;31795;50.970;13.366;2022-07-29T00:04:53;97978.00;;;12.86;81.34
2791;BME280;31795;50.970;13.366;2022-07-29T00:07:06;97971.94;;;12.86;81.60
2791;BME280;31795;50.970;13.366;2022-07-29T00:09:15;97970.16;;;12.86;82.09
2791;BME280;31795;50.970;13.366;2022-07-29T00:11:28;97966.72;;;12.86;82.93
2791;BME280;31795;50.970;13.366;2022-07-29T00:13:51;97960.69;;;12.85;83.14
2791;BME280;31795;50.970;13.366;2022-07-29T00:15:57;97961.44;;;12.79;83.64
2791;BME280;31795;50.970;13.366;2022-07-29T00:20:35;97952.44;;;12.60;83.12
2791;BME280;31795;50.970;13.366;2022-07-29T00:22:57;97960.34;;;12.67;83.52
2791;BME280;31795;50.970;13.366;2022-07-29T00:25:04;97953.94;;;12.69;83.69
2791;BME280;31795;50.970;13.366;2022-07-29T00:27:13;97948.88;;;12.68;84.46
2791;BME280;31795;50.970;13.366;2022-07-29T00:29:23;97938.59;;;12.66;84.77
2791;BME280;31795;50.970;13.366;2022-07-29T00:33:47;97936.03;;;12.73;86.43
2791;BME280;31795;50.970;13.366;2022-07-29T00:35:57;97936.81;;;12.73;85.80
2791;BME280;31795;50.970;13.366;2022-07-29T00:38:02;97940.06;;;12.76;85.81
2791;BME280;31795;50.970;13.366;2022-07-29T00:40:09;97932.63;;;12.79;86.63
2791;BME280;31795;50.970;13.366;2022-07-29T00:42:25;97935.69;;;12.83;86.66
2791;BME280;31795;50.970;13.366;2022-07-29T00:44:38;97935.28;;;12.86;86.99
2791;BME280;31795;50.970;13.366;2022-07-29T00:46:59;97939.09;;;12.83;87.29
2791;BME280;31795;50.970;13.366;2022-07-29T00:49:20;97933.06;;;12.83;88.68
2791;BME280;31795;50.970;13.366;2022-07-29T00:51:37;97926.66;;;12.92;88.85
2791;BME280;31795;50.970;13.366;2022-07-29T00:53:50;97917.00;;;12.99;88.58
2791;BME280;31795;50.970;13.366;2022-07-29T00:55:58;97915.41;;;13.05;88.57
2791;BME280;31795;50.970;13.366;2022-07-29T00:58:11;97908.75;;;13.02;88.96
2791;BME280;31795;50.970;13.366;2022-07-29T01:00:20;97905.34;;;13.02;89.35
2791;BME280;31795;50.970;13.366;2022-07-29T01:02:30;97902.13;;;13.07;88.35
2791;BME280;31795;50.970;13.366;2022-07-29T01:04:48;97902.31;;;13.05;88.29
2791;BME280;31795;50.970;13.366;2022-07-29T01:07:18;97902.91;;;13.07;87.68
2791;BME280;31795;50.970;13.366;2022-07-29T01:09:38;97894.25;;;13.07;88.02
2791;BME280;31795;50.970;13.366;2022-07-29T01:11:46;97892.06;;;13.10;89.10
2791;BME280;31795;50.970;13.366;2022-07-29T01:13:54;97896.09;;;13.13;89.28
2791;BME280;31795;50.970;13.366;2022-07-29T01:16:10;97895.09;;;13.14;89.04
2791;BME280;31795;50.970;13.366;2022-07-29T01:18:23;97895.09;;;13.14;89.51
2791;BME280;31795;50.970;13.366;2022-07-29T01:21:05;97884.78;;;13.06;90.21
2791;BME280;31795;50.970;13.366;2022-07-29T01:23:42;97888.03;;;13.08;89.10
2791;BME280;31795;50.970;13.366;2022-07-29T01:26:27;97892.06;;;13.10;89.11
2791;BME280;31795;50.970;13.366;2022-07-29T01:29:03;97895.88;;;13.08;90.06
2791;BME280;31795;50.970;13.366;2022-07-29T01:31:13;97890.19;;;13.04;89.20
2791;BME280;31795;50.970;13.366;2022-07-29T01:33:29;97898.88;;;12.98;89.76
2791;BME280;31795;50.970;13.366;2022-07-29T01:35:57;97897.22;;;12.90;90.70
2791;BME280;31795;50.970;13.366;2022-07-29T01:41:06;97893.22;;;12.94;91.18
2791;BME280;31795;50.970;13.366;2022-07-29T01:43:17;97892.22;;;12.95;91.93
2791;BME280;31795;50.970;13.366;2022-07-29T01:45:45;97885.13;;;12.96;92.17
2791;BME280;31795;50.970;13.366;2022-07-29T01:47:57;97887.34;;;12.92;91.95
2791;BME280;31795;50.970;13.366;2022-07-29T01:50:08;97883.50;;;12.88;92.74
2791;BME280;31795;50.970;13.366;2022-07-29T01:52:21;97881.47;;;12.83;93.18
2791;BME280;31795;50.970;13.366;2022-07-29T01:54:34;97882.25;;;12.84;92.71
2791;BME280;31795;50.970;13.366;2022-07-29T01:56:42;97883.47;;;12.81;93.11
2791;BME280;31795;50.970;13.366;2022-07-29T01:58:51;97878.44;;;12.80;92.92
2791;BME280;31795;50.970;13.366;2022-07-29T02:01:02;97887.06;;;12.73;93.83
2791;BME280;31795;50.970;13.366;2022-07-29T02:03:16;97886.19;;;12.60;94.43
2791;BME280;31795;50.970;13.366;2022-07-29T02:05:32;97879.09;;;12.53;94.52
2791;BME280;31795;50.970;13.366;2022-07-29T02:07:47;97873.69;;;12.55;93.97
2791;BME280;31795;50.970;13.366;2022-07-29T02:09:54;97874.09;;;12.59;94.07
2791;BME280;31795;50.970;13.366;2022-07-29T02:12:03;97869.88;;;12.64;94.24
2791;BME280;31795;50.970;13.366;2022-07-29T02:14:13;97866.44;;;12.64;94.12
2791;BME280;31795;50.970;13.366;2022-07-29T02:16:33;97863.66;;;12.65;94.21
2791;BME280;31795;50.970;13.366;2022-07-29T02:18:48;97866.03;;;12.60;94.80
2791;BME280;31795;50.970;13.366;2022-07-29T02:21:03;97871.09;;;12.62;94.55
2791;BME280;31795;50.970;13.366;2022-07-29T02:23:26;97874.13;;;12.65;94.65
2791;BME280;31795;50.970;13.366;2022-07-29T02:25:35;97870.88;;;12.63;95.30
2791;BME280;31795;50.970;13.366;2022-07-29T02:27:44;97870.09;;;12.63;96.20
2791;BME280;31795;50.970;13.366;2022-07-29T02:29:53;97872.31;;;12.66;95.73
2791;BME280;31795;50.970;13.366;2022-07-29T02:32:32;97870.69;;;12.65;96.62
2791;BME280;31795;50.970;13.366;2022-07-29T02:34:41;97867.50;;;12.69;95.71
2791;BME280;31795;50.970;13.366;2022-07-29T02:36:49;97864.88;;;12.69;96.60
2791;BME280;31795;50.970;13.366;2022-07-29T02:39:03;97868.69;;;12.67;97.18
2791;BME280;31795;50.970;13.366;2022-07-29T02:41:16;97862.44;;;12.68;96.65
2791;BME280;31795;50.970;13.366;2022-07-29T02:43:24;97860.25;;;12.71;96.44
2791;BME280;31795;50.970;13.366;2022-07-29T02:45:31;97860.06;;;12.73;97.74
2791;BME280;31795;50.970;13.366;2022-07-29T02:48:02;97863.09;;;12.77;97.49
2791;BME280;31795;50.970;13.366;2022-07-29T02:50:30;97856.66;;;12.79;97.48
2791;BME280;31795;50.970;13.366;2022-07-29T02:52:53;97853.63;;;12.76;97.61
2791;BME280;31795;50.970;13.366;2022-07-29T02:55:10;97862.31;;;12.76;97.78
2791;BME280;31795;50.970;13.366;2022-07-29T02:57:22;97855.25;;;12.77;98.47
2791;BME280;31795;50.970;13.366;2022-07-29T02:59:34;97856.84;;;12.78;97.40
2791;BME280;31795;50.970;13.366;2022-07-29T03:01:42;97858.47;;;12.79;97.97
2791;BME280;31795;50.970;13.366;2022-07-29T03:03:53;97861.09;;;12.79;98.49
2791;BME280;31795;50.970;13.366;2022-07-29T03:06:18;97864.34;;;12.81;98.47
2791;BME280;31795;50.970;13.366;2022-07-29T03:08:36;97854.47;;;12.83;98.39
2791;BME280;31795;50.970;13.366;2022-07-29T03:10:51;97847.63;;;12.82;98.28
2791;BME280;31795;50.970;13.366;2022-07-29T03:13:00;97853.66;;;12.82;98.50
2791;BME280;31795;50.970;13.366;2022-07-29T03:15:29;97853.44;;;12.84;98.78
2791;BME280;31795;50.970;13.366;2022-07-29T03:17:53;97846.41;;;12.84;98.28
2791;BME280;31795;50.970;13.366;2022-07-29T03:20:08;97845.19;;;12.87;99.10
2791;BME280;31795;50.970;13.366;2022-07-29T03:22:22;97850.81;;;12.84;100.00
2791;BME280;31795;50.970;13.366;2022-07-29T03:24:33;97850.03;;;12.83;100.00
2791;BME280;31795;50.970;13.366;2022-07-29T03:26:39;97846.41;;;12.84;100.00
2791;BME280;31795;50.970;13.366;2022-07-29T03:28:46;97852.47;;;12.92;99.57
2791;BME280;31795;50.970;13.366;2022-07-29T03:31:01;97846.47;;;12.98;99.32
2791;BME280;31795;50.970;13.366;2022-07-29T03:33:19;97848.88;;;12.99;99.65
2791;BME280;31795;50.970;13.366;2022-07-29T03:35:30;97844.03;;;12.96;99.58
2791;BME280;31795;50.970;13.366;2022-07-29T03:37:51;97844.25;;;13.01;98.87
2791;BME280;31795;50.970;13.366;2022-07-29T03:39:58;97841.44;;;13.03;98.71
2791;BME280;31795;50.970;13.366;2022-07-29T03:42:06;97837.78;;;13.04;99.72
2791;BME280;31795;50.970;13.366;2022-07-29T03:44:17;97835.59;;;13.08;100.00
2791;BME280;31795;50.970;13.366;2022-07-29T03:46:26;97844.09;;;13.10;100.00
2791;BME280;31795;50.970;13.366;2022-07-29T03:48:42;97842.25;;;13.10;100.00
2791;BME280;31795;50.970;13.366;2022-07-29T03:50:56;97838.22;;;13.08;100.00
2791;BME280;31795;50.970;13.366;2022-07-29T03:53:06;97840.25;;;13.12;100.00
2791;BME280;31795;50.970;13.366;2022-07-29T03:55:23;97843.66;;;13.13;100.00
2791;BME280;31795;50.970;13.366;2022-07-29T03:57:36;97840.66;;;13.16;100.00
2791;BME280;31795;50.970;13.366;2022-07-29T04:00:05;97846.53;;;13.18;100.00
2791;BME280;31795;50.970;13.366;2022-07-29T04:02:18;97843.69;;;13.19;100.00
2791;BME280;31795;50.970;13.366;2022-07-29T04:04:35;97849.38;;;13.23;100.00
2791;BME280;31795;50.970;13.366;2022-07-29T04:09:32;97849.38;;;13.37;100.00
2791;BME280;31795;50.970;13.366;2022-07-29T04:11:42;97848.22;;;13.46;100.00
2791;BME280;31795;50.970;13.366;2022-07-29T04:14:03;97843.00;;;13.53;100.00
2791;BME280;31795;50.970;13.366;2022-07-29T04:16:35;97849.84;;;13.60;100.00
2791;BME280;31795;50.970;13.366;2022-07-29T04:18:49;97856.91;;;13.67;100.00
2791;BME280;31795;50.970;13.366;2022-07-29T04:21:10;97854.50;;;13.72;100.00
2791;BME280;31795;50.970;13.366;2022-07-29T04:23:16;97845.81;;;13.78;100.00
2791;BME280;31795;50.970;13.366;2022-07-29T04:25:27;97855.28;;;13.79;100.00
2791;BME280;31795;50.970;13.366;2022-07-29T04:27:39;97853.28;;;13.88;100.00
2791;BME280;31795;50.970;13.366;2022-07-29T04:30:06;97850.06;;;13.79;100.00
2791;BME280;31795;50.970;13.366;2022-07-29T04:32:12;97856.50;;;13.76;99.77
2791;BME280;31795;50.970;13.366;2022-07-29T04:34:18;97860.16;;;13.75;99.82
2791;BME280;31795;50.970;13.366;2022-07-29T04:36:28;97855.50;;;13.77;100.00
2791;BME280;31795;50.970;13.366;2022-07-29T04:38:38;97856.91;;;13.80;100.00
2791;BME280;31795;50.970;13.366;2022-07-29T04:41:03;97861.97;;;13.82;100.00
2791;BME280;31795;50.970;13.366;2022-07-29T04:43:09;97857.91;;;13.92;99.81
2791;BME280;31795;50.970;13.366;2022-07-29T04:45:16;97859.34;;;13.95;100.00
2791;BME280;31795;50.970;13.366;2022-07-29T04:47:24;97855.69;;;14.03;100.00
2791;BME280;31795;50.970;13.366;2022-07-29T04:49:32;97854.69;;;14.10;100.00
2791;BME280;31795;50.970;13.366;2022-07-29T04:52:01;97851.22;;;14.37;100.00
2791;BME280;31795;50.970;13.366;2022-07-29T04:54:07;97845.13;;;14.50;100.00
2791;BME280;31795;50.970;13.366;2022-07-29T04:56:35;97849.31;;;14.64;100.00
2791;BME280;31795;50.970;13.366;2022-07-29T04:58:44;97851.53;;;14.74;100.00
2791;BME280;31795;50.970;13.366;2022-07-29T05:00:50;97851.28;;;14.82;100.00
2791;BME280;31795;50.970;13.366;2022-07-29T05:03:04;97847.06;;;14.88;99.51
2791;BME280;31795;50.970;13.366;2022-07-29T05:05:28;97849.44;;;14.96;99.57
2791;BME280;31795;50.970;13.366;2022-07-29T05:07:43;97852.59;;;15.12;100.00
2791;BME280;31795;50.970;13.366;2022-07-29T05:09:49;97849.19;;;15.43;100.00
2791;BME280;31795;50.970;13.366;2022-07-29T05:12:03;97847.78;;;15.98;99.08
2791;BME280;31795;50.970;13.366;2022-07-29T05:14:13;97845.50;;;16.46;97.57
2791;BME280;31795;50.970;13.366;2022-07-29T05:16:25;97843.00;;;16.88;94.16
2791;BME280;31795;50.970;13.366;2022-07-29T05:18:31;97843.78;;;17.38;88.14
2791;BME280;31795;50.970;13.366;2022-07-29T05:20:45;97845.38;;;17.93;87.20
2791;BME280;31795;50.970;13.366;2022-07-29T05:22:51;97840.81;;;18.36;85.80
2791;BME280;31795;50.970;13.366;2022-07-29T05:25:10;97843.75;;;18.63;83.50
2791;BME280;31795;50.970;13.366;2022-07-29T05:29:59;97844.28;;;19.18;80.51
2791;BME280;31795;50.970;13.366;2022-07-29T05:32:13;97846.47;;;18.80;82.85
2791;BME280;31795;50.970;13.366;2022-07-29T05:34:40;97843.34;;;18.31;82.74
2791;BME280;31795;50.970;13.366;2022-07-29T05:36:50;97849.84;;;17.92;85.23
2791;BME280;31795;50.970;13.366;2022-07-29T05:39:05;97844.81;;;17.91;85.94
2791;BME280;31795;50.970;13.366;2022-07-29T05:41:18;97843.78;;;17.92;86.19
2791;BME280;31795;50.970;13.366;2022-07-29T05:43:52;97849.09;;;18.04;85.58
2791;BME280;31795;50.970;13.366;2022-07-29T05:45:59;97847.47;;;18.27;87.07
2791;BME280;31795;50.970;13.366;2022-07-29T05:48:05;97853.91;;;18.43;86.67
2791;BME280;31795;50.970;13.366;2022-07-29T05:50:12;97853.31;;;18.52;84.33
2791;BME280;31795;50.970;13.366;2022-07-29T05:52:19;97861.72;;;18.49;86.23
2791;BME280;31795;50.970;13.366;2022-07-29T05:54:34;97860.78;;;18.56;85.40
2791;BME280;31795;50.970;13.366;2022-07-29T05:56:43;97864.31;;;18.61;85.71
2791;BME280;31795;50.970;13.366;2022-07-29T05:59:10;97857.66;;;18.71;85.23
2791;BME280;31795;50.970;13.366;2022-07-29T06:01:20;97866.84;;;18.68;85.43
2791;BME280;31795;50.970;13.366;2022-07-29T06:03:28;97865.34;;;18.60;85.53
2791;BME280;31795;50.970;13.366;2022-07-29T06:05:41;97854.44;;;18.57;81.47
2791;BME280;31795;50.970;13.366;2022-07-29T06:07:49;97859.84;;;18.62;81.65
2791;BME280;31795;50.970;13.366;2022-07-29T06:10:00;97858.88;;;18.80;82.04
2791;BME280;31795;50.970;13.366;2022-07-29T06:12:11;97862.31;;;18.92;82.94
2791;BME280;31795;50.970;13.366;2022-07-29T06:14:22;97857.47;;;18.89;80.90
2791;BME280;31795;50.970;13.366;2022-07-29T06:16:30;97857.16;;;18.97;80.65
2791;BME280;31795;50.970;13.366;2022-07-29T06:18:38;97855.97;;;19.05;79.38
2791;BME280;31795;50.970;13.366;2022-07-29T06:20:46;97856.38;;;19.14;80.30
2791;BME280;31795;50.970;13.366;2022-07-29T06:22:58;97862.91;;;19.23;83.37
2791;BME280;31795;50.970;13.366;2022-07-29T06:25:12;97867.97;;;19.25;80.76
2791;BME280;31795;50.970;13.366;2022-07-29T06:27:23;97869.00;;;19.24;79.36
2791;BME280;31795;50.970;13.366;2022-07-29T06:29:31;97866.81;;;19.21;78.36
2791;BME280;31795;50.970;13.366;2022-07-29T06:31:38;97865.06;;;19.26;78.88
2791;BME280;31795;50.970;13.366;2022-07-29T06:33:47;97866.28;;;19.19;75.29
2791;BME280;31795;50.970;13.366;2022-07-29T06:35:54;97864.31;;;19.14;75.96
2791;BME280;31795;50.970;13.366;2022-07-29T06:38:15;97871.66;;;19.24;76.96
2791;BME280;31795;50.970;13.366;2022-07-29T06:40:35;97867.50;;;19.28;77.40
2791;BME280;31795;50.970;13.366;2022-07-29T06:43:02;97880.16;;;19.26;76.35
2791;BME280;31795;50.970;13.366;2022-07-29T06:45:17;97877.25;;;19.27;77.12
2791;BME280;31795;50.970;13.366;2022-07-29T06:47:25;97874.25;;;19.36;75.97
2791;BME280;31795;50.970;13.366;2022-07-29T06:49:31;97878.44;;;19.49;75.53
2791;BME280;31795;50.970;13.366;2022-07-29T06:51:45;97879.81;;;19.51;74.56
2791;BME280;31795;50.970;13.366;2022-07-29T06:53:54;97880.84;;;19.50;74.26
2791;BME280;31795;50.970;13.366;2022-07-29T06:56:21;97878.59;;;19.59;73.83
2791;BME280;31795;50.970;13.366;2022-07-29T06:58:31;97885.69;;;19.70;73.92
2791;BME280;31795;50.970;13.366;2022-07-29T07:01:00;97873.09;;;19.78;73.96
2791;BME280;31795;50.970;13.366;2022-07-29T07:03:07;97882.63;;;19.90;74.28
2791;BME280;31795;50.970;13.366;2022-07-29T07:05:26;97877.69;;;19.99;75.26
2791;BME280;31795;50.970;13.366;2022-07-29T07:08:01;97878.81;;;20.03;74.28
2791;BME280;31795;50.970;13.366;2022-07-29T07:10:17;97883.88;;;20.05;74.68
2791;BME280;31795;50.970;13.366;2022-07-29T07:12:32;97876.88;;;20.16;73.19
2791;BME280;31795;50.970;13.366;2022-07-29T07:15:02;97878.88;;;20.26;72.52
2791;BME280;31795;50.970;13.366;2022-07-29T07:17:13;97880.00;;;20.30;73.19
2791;BME280;31795;50.970;13.366;2022-07-29T07:19:19;97872.41;;;20.39;72.04
2791;BME280;31795;50.970;13.366;2022-07-29T07:21:32;97882.53;;;20.42;72.01
2791;BME280;31795;50.970;13.366;2022-07-29T07:23:55;97878.97;;;20.53;71.83
2791;BME280;31795;50.970;13.366;2022-07-29T07:26:11;97880.34;;;20.56;72.87
2791;BME280;31795;50.970;13.366;2022-07-29T07:28:18;97877.19;;;20.59;71.57
2791;BME280;31795;50.970;13.366;2022-07-29T07:30:30;97881.97;;;20.57;70.47
2791;BME280;31795;50.970;13.366;2022-07-29T07:32:41;97875.19;;;20.66;69.77
2791;BME280;31795;50.970;13.366;2022-07-29T07:35:13;97882.09;;;20.67;69.68
2791;BME280;31795;50.970;13.366;2022-07-29T07:37:20;97876.84;;;20.72;69.27
2791;BME280;31795;50.970;13.366;2022-07-29T07:39:26;97870.84;;;20.77;68.90
2791;BME280;31795;50.970;13.366;2022-07-29T07:41:33;97868.22;;;21.04;70.49
2791;BME280;31795;50.970;13.366;2022-07-29T07:43:45;97864.22;;;21.02;68.87
2791;BME280;31795;50.970;13.366;2022-07-29T07:45:58;97864.41;;;21.17;68.65
2791;BME280;31795;50.970;13.366;2022-07-29T07:48:08;97869.06;;;21.10;66.95
2791;BME280;31795;50.970;13.366;2022-07-29T07:50:15;97860.75;;;21.01;65.37
2791;BME280;31795;50.970;13.366;2022-07-29T07:52:54;97854.28;;;20.92;65.00
2791;BME280;31795;50.970;13.366;2022-07-29T07:55:02;97853.63;;;21.02;65.51
2791;BME280;31795;50.970;13.366;2022-07-29T07:57:14;97854.84;;;21.21;66.29
2791;BME280;31795;50.970;13.366;2022-07-29T07:59:30;97851.56;;;21.36;64.22
2791;BME280;31795;50.970;13.366;2022-07-29T08:01:37;97854.75;;;21.38;62.15
2791;BME280;31795;50.970;13.366;2022-07-29T08:03:46;97852.88;;;21.61;62.88
2791;BME280;31795;50.970;13.366;2022-07-29T08:05:53;97855.69;;;21.82;63.34
2791;BME280;31795;50.970;13.366;2022-07-29T08:07:59;97856.69;;;22.08;61.99
2791;BME280;31795;50.970;13.366;2022-07-29T08:10:16;97858.56;;;22.13;61.04
2791;BME280;31795;50.970;13.366;2022-07-29T08:12:45;97857.63;;;22.34;59.60
2791;BME280;31795;50.970;13.366;2022-07-29T08:14:57;97867.88;;;22.58;59.30
2791;BME280;31795;50.970;13.366;2022-07-29T08:17:07;97864.19;;;22.70;56.90
2791;BME280;31795;50.970;13.366;2022-07-29T08:19:20;97874.66;;;22.87;58.68
2791;BME280;31795;50.970;13.366;2022-07-29T08:21:29;97861.41;;;23.02;58.33
2791;BME280;31795;50.970;13.366;2022-07-29T08:23:39;97862.72;;;23.10;58.03
2791;BME280;31795;50.970;13.366;2022-07-29T08:26:05;97865.66;;;23.08;57.72
2791;BME280;31795;50.970;13.366;2022-07-29T08:28:21;97852.31;;;22.88;56.64
2791;BME280;31795;50.970;13.366;2022-07-29T08:30:28;97855.19;;;22.76;57.42
2791;BME280;31795;50.970;13.366;2022-07-29T08:32:34;97851.19;;;22.73;56.59
2791;BME280;31795;50.970;13.366;2022-07-29T08:34:42;97849.66;;;22.93;58.23
2791;BME280;31795;50.970;13.366;2022-07-29T08:36:51;97849.16;;;23.01;56.39
2791;BME280;31795;50.970;13.366;2022-07-29T08:38:59;97847.53;;;22.95;56.59
2791;BME280;31795;50.970;13.366;2022-07-29T08:41:05;97843.03;;;23.01;55.24
2791;BME280;31795;50.970;13.366;2022-07-29T08:43:27;97839.09;;;23.24;56.02
2791;BME280;31795;50.970;13.366;2022-07-29T08:45:51;97843.13;;;23.63;57.52
2791;BME280;31795;50.970;13.366;2022-07-29T08:48:22;97847.94;;;23.61;53.65
2791;BME280;31795;50.970;13.366;2022-07-29T08:50:37;97853.78;;;23.83;54.60
2791;BME280;31795;50.970;13.366;2022-07-29T08:52:44;97856.97;;;23.80;54.32
2791;BME280;31795;50.970;13.366;2022-07-29T08:55:05;97855.41;;;23.84;54.60
2791;BME280;31795;50.970;13.366;2022-07-29T08:57:13;97857.25;;;24.10;55.60
2791;BME280;31795;50.970;13.366;2022-07-29T08:59:30;97852.69;;;24.26;55.19
2791;BME280;31795;50.970;13.366;2022-07-29T09:01:43;97847.53;;;24.55;53.35
2791;BME280;31795;50.970;13.366;2022-07-29T09:04:13;97850.44;;;24.59;53.96
2791;BME280;31795;50.970;13.366;2022-07-29T09:06:31;97848.34;;;24.51;52.72
2791;BME280;31795;50.970;13.366;2022-07-29T09:08:46;97852.63;;;24.46;52.02
2791;BME280;31795;50.970;13.366;2022-07-29T09:10:54;97854.72;;;24.55;52.08
2791;BME280;31795;50.970;13.366;2022-07-29T09:13:01;97853.25;;;24.93;54.57
2791;BME280;31795;50.970;13.366;2022-07-29T09:15:08;97848.59;;;25.20;54.33
2791;BME280;31795;50.970;13.366;2022-07-29T09:17:15;97849.22;;;25.46;51.74
2791;BME280;31795;50.970;13.366;2022-07-29T09:19:35;97855.75;;;25.69;53.68
2791;BME280;31795;50.970;13.366;2022-07-29T09:21:58;97839.28;;;25.12;52.28
2791;BME280;31795;50.970;13.366;2022-07-29T09:24:22;97842.97;;;25.16;53.88
2791;BME280;31795;50.970;13.366;2022-07-29T09:26:48;97843.41;;;24.89;51.24
2791;BME280;31795;50.970;13.366;2022-07-29T09:29:23;97844.88;;;25.16;51.74
2791;BME280;31795;50.970;13.366;2022-07-29T09:31:37;97848.59;;;25.60;52.92
2791;BME280;31795;50.970;13.366;2022-07-29T09:33:46;97834.00;;;26.06;50.94
2791;BME280;31795;50.970;13.366;2022-07-29T09:36:09;97836.09;;;26.62;51.21
2791;BME280;31795;50.970;13.366;2022-07-29T09:41:08;97832.75;;;26.95;48.27
2791;BME280;31795;50.970;13.366;2022-07-29T09:43:15;97832.44;;;27.35;46.85
2791;BME280;31795;50.970;13.366;2022-07-29T09:45:30;97827.03;;;27.21;47.44
2791;BME280;31795;50.970;13.366;2022-07-29T09:47:45;97824.03;;;27.61;45.14
2791;BME280;31795;50.970;13.366;2022-07-29T09:50:00;97823.63;;;27.67;45.35
2791;BME280;31795;50.970;13.366;2022-07-29T09:52:12;97825.22;;;27.35;45.80
2791;BME280;31795;50.970;13.366;2022-07-29T09:59:17;97824.66;;;27.86;45.22
2791;BME280;31795;50.970;13.366;2022-07-29T10:01:27;97821.91;;;27.91;43.58
2791;BME280;31795;50.970;13.366;2022-07-29T10:04:12;97816.28;;;28.20;42.37
2791;BME280;31795;50.970;13.366;2022-07-29T10:06:55;97816.25;;;28.06;43.81
2791;BME280;31795;50.970;13.366;2022-07-29T10:09:07;97818.91;;;28.11;44.89
2791;BME280;31795;50.970;13.366;2022-07-29T10:13:48;97807.75;;;28.18;42.30
2791;BME280;31795;50.970;13.366;2022-07-29T10:16:01;97817.19;;;28.43;42.58
2791;BME280;31795;50.970;13.366;2022-07-29T10:18:09;97809.63;;;28.45;40.86
2791;BME280;31795;50.970;13.366;2022-07-29T10:20:23;97804.94;;;28.79;43.95
2791;BME280;31795;50.970;13.366;2022-07-29T10:22:43;97798.13;;;28.96;39.56
2791;BME280;31795;50.970;13.366;2022-07-29T10:24:52;97800.09;;;29.04;42.56
2791;BME280;31795;50.970;13.366;2022-07-29T10:27:01;97800.69;;;29.38;43.62
2791;BME280;31795;50.970;13.366;2022-07-29T10:29:09;97798.47;;;29.17;38.50
2791;BME280;31795;50.970;13.366;2022-07-29T10:31:23;97796.19;;;28.73;39.16
2791;BME280;31795;50.970;13.366;2022-07-29T10:33:55;97791.31;;;28.75;38.21
2791;BME280;31795;50.970;13.366;2022-07-29T10:36:41;97786.75;;;28.99;41.05
2791;BME280;31795;50.970;13.366;2022-07-29T10:38:55;97788.41;;;29.45;38.28
2791;BME280;31795;50.970;13.366;2022-07-29T10:41:53;97792.13;;;29.90;39.79
2791;BME280;31795;50.970;13.366;2022-07-29T10:44:44;97787.63;;;29.85;38.67
2791;BME280;31795;50.970;13.366;2022-07-29T10:46:41;97785.38;;;30.01;37.94
2791;BME280;31795;50.970;13.366;2022-07-29T10:49:05;97789.34;;;30.04;34.93
2791;BME280;31795;50.970;13.366;2022-07-29T10:51:24;97776.50;;;29.69;35.40
2791;BME280;31795;50.970;13.366;2022-07-29T10:53:47;97785.53;;;29.73;37.21
2791;BME280;31795;50.970;13.366;2022-07-29T10:56:04;97780.59;;;29.21;37.23
2791;BME280;31795;50.970;13.366;2022-07-29T10:58:15;97775.06;;;29.17;39.14
2791;BME280;31795;50.970;13.366;2022-07-29T11:00:27;97773.41;;;29.08;38.54
2791;BME280;31795;50.970;13.366;2022-07-29T11:02:49;97782.47;;;29.57;37.36
2791;BME280;31795;50.970;13.366;2022-07-29T11:04:59;97776.44;;;30.23;39.16
2791;BME280;31795;50.970;13.366;2022-07-29T11:07:12;97785.66;;;30.49;37.41
2791;BME280;31795;50.970;13.366;2022-07-29T11:09:27;97777.25;;;30.41;38.16
2791;BME280;31795;50.970;13.366;2022-07-29T11:11:38;97783.66;;;30.14;37.50
2791;BME280;31795;50.970;13.366;2022-07-29T11:13:53;97778.97;;;29.57;34.86
2791;BME280;31795;50.970;13.366;2022-07-29T11:16:07;97769.75;;;29.80;35.51
2791;BME280;31795;50.970;13.366;2022-07-29T11:18:29;97783.59;;;30.46;35.35
2791;BME280;31795;50.970;13.366;2022-07-29T11:20:39;97770.75;;;30.34;38.02
2791;BME280;31795;50.970;13.366;2022-07-29T11:22:46;97771.97;;;30.10;37.40
2791;BME280;31795;50.970;13.366;2022-07-29T11:25:13;97776.72;;;29.81;35.82
2791;BME280;31795;50.970;13.366;2022-07-29T11:27:30;97776.88;;;30.17;36.26
2791;BME280;31795;50.970;13.366;2022-07-29T11:29:52;97781.97;;;29.87;36.18
2791;BME280;31795;50.970;13.366;2022-07-29T11:32:55;97776.94;;;29.62;37.42
2791;BME280;31795;50.970;13.366;2022-07-29T11:35:15;97771.31;;;29.81;36.17
2791;BME280;31795;50.970;13.366;2022-07-29T11:37:23;97774.06;;;29.90;37.03
2791;BME280;31795;50.970;13.366;2022-07-29T11:39:30;97778.13;;;29.79;35.94
2791;BME280;31795;50.970;13.366;2022-07-29T11:41:36;97766.00;;;29.59;36.03
2791;BME280;31795;50.970;13.366;2022-07-29T11:43:57;97769.44;;;29.50;36.75
2791;BME280;31795;50.970;13.366;2022-07-29T11:46:04;97762.53;;;29.35;36.71
2791;BME280;31795;50.970;13.366;2022-07-29T11:48:27;97773.47;;;29.16;37.94
2791;BME280;31795;50.970;13.366;2022-07-29T11:50:57;97766.22;;;29.40;38.83
2791;BME280;31795;50.970;13.366;2022-07-29T11:53:16;97771.19;;;30.18;38.97
2791;BME280;31795;50.970;13.366;2022-07-29T11:55:38;97773.34;;;30.07;36.92
2791;BME280;31795;50.970;13.366;2022-07-29T12:00:30;97754.41;;;29.49;36.11
2791;BME280;31795;50.970;13.366;2022-07-29T12:02:43;97751.41;;;29.28;36.10
2791;BME280;31795;50.970;13.366;2022-07-29T12:04:56;97751.66;;;28.95;38.07
2791;BME280;31795;50.970;13.366;2022-07-29T12:07:18;97753.47;;;28.86;37.23
2791;BME280;31795;50.970;13.366;2022-07-29T12:09:32;97740.91;;;28.95;36.67
2791;BME280;31795;50.970;13.366;2022-07-29T12:11:47;97749.69;;;29.55;36.73
2791;BME280;31795;50.970;13.366;2022-07-29T12:13:56;97750.56;;;29.73;35.21
2791;BME280;31795;50.970;13.366;2022-07-29T12:16:10;97755.97;;;30.14;35.96
2791;BME280;31795;50.970;13.366;2022-07-29T12:18:18;97753.56;;;30.03;36.05
2791;BME280;31795;50.970;13.366;2022-07-29T12:20:32;97750.53;;;29.64;37.13